Terminal Aerodrome Forecast
Issued by NWS

Current Version | Previous Version | Text Only | Print | Product List | Glossary Off
Versions: 1 2 3 4 5 6 7 8 9 10 11 12 13 14 15

000
FTUS41 KRLX 251500 AAA
TAFCKB
TAF AMD
KCKB 251535Z 2516/2612 25010G18KT P6SM -SHRA OVC025
     FM252100 25010G15KT P6SM BKN035
     FM252300 23005KT P6SM BKN045
     FM260200 VRB03KT P6SM SCT060
     FM261000 00000KT 6SM BR SCT250=

USA.gov is the U.S. government's official web portal to all federal, state and local government web resources and services.